sensor_id;sensor_type;location;lat;lon;timestamp;pressure;altitude;pressure_sealevel;temperature;humidity
30343;BME280;17145;49.902;8.680;'2023-05-03 01:58:40';101110;;;9;42
30343;BME280;17145;49.902;8.680;'2023-05-03 02:01:08';101110;;;9;42
30343;BME280;17145;49.902;8.680;'2023-05-03 02:03:35';101110;;;9;43
30343;BME280;17145;49.902;8.680;'2023-05-03 02:06:09';101110;;;9;43
30343;BME280;17145;49.902;8.680;'2023-05-03 02:08:37';101110;;;9;43
30343;BME280;17145;49.902;8.680;'2023-05-03 02:11:05';101110;;;9;42
30343;BME280;17145;49.902;8.680;'2023-05-03 02:13:32';101110;;;9;42
30343;BME280;17145;49.902;8.680;'2023-05-03 02:16:00';101110;;;9;42
30343;BME280;17145;49.902;8.680;'2023-05-03 02:18:27';101110;;;9;42
30343;BME280;17145;49.902;8.680;'2023-05-03 02:20:55';101110;;;9;42
30343;BME280;17145;49.902;8.680;'2023-05-03 02:23:22';101110;;;9;42
30343;BME280;17145;49.902;8.680;'2023-05-03 02:25:51';101110;;;9;42
30343;BME280;17145;49.902;8.680;'2023-05-03 02:28:19';101100;;;9;42
30343;BME280;17145;49.902;8.680;'2023-05-03 02:30:46';101100;;;9;42
30343;BME280;17145;49.902;8.680;'2023-05-03 02:33:14';101100;;;9;42
30343;BME280;17145;49.902;8.680;'2023-05-03 02:35:42';101100;;;9;42
30343;BME280;17145;49.902;8.680;'2023-05-03 02:38:10';101100;;;9;42
30343;BME280;17145;49.902;8.680;'2023-05-03 02:40:37';101100;;;9;43
30343;BME280;17145;49.902;8.680;'2023-05-03 02:43:04';101090;;;9;42
30343;BME280;17145;49.902;8.680;'2023-05-03 02:45:33';101090;;;9;43
30343;BME280;17145;49.902;8.680;'2023-05-03 02:48:00';101080;;;9;42
30343;BME280;17145;49.902;8.680;'2023-05-03 02:50:29';101080;;;9;42
30343;BME280;17145;49.902;8.680;'2023-05-03 02:52:57';101080;;;9;42
30343;BME280;17145;49.902;8.680;'2023-05-03 02:55:28';101080;;;9;42
30343;BME280;17145;49.902;8.680;'2023-05-03 02:57:55';101080;;;9;42
30343;BME280;17145;49.902;8.680;'2023-05-03 03:00:23';101070;;;9;42
30343;BME280;17145;49.902;8.680;'2023-05-03 03:02:50';101070;;;9;42
30343;BME280;17145;49.902;8.680;'2023-05-03 03:05:18';101070;;;8;42
30343;BME280;17145;49.902;8.680;'2023-05-03 03:07:55';101070;;;8;42
30343;BME280;17145;49.902;8.680;'2023-05-03 03:10:31';101070;;;9;42
30343;BME280;17145;49.902;8.680;'2023-05-03 03:13:06';101070;;;8;42
30343;BME280;17145;49.902;8.680;'2023-05-03 03:15:44';101070;;;9;43
30343;BME280;17145;49.902;8.680;'2023-05-03 03:18:15';101080;;;8;43
30343;BME280;17145;49.902;8.680;'2023-05-03 03:20:47';101070;;;9;43
30343;BME280;17145;49.902;8.680;'2023-05-03 03:23:25';101070;;;8;43
30343;BME280;17145;49.902;8.680;'2023-05-03 03:25:52';101060;;;8;43
30343;BME280;17145;49.902;8.680;'2023-05-03 03:28:20';101070;;;8;43
30343;BME280;17145;49.902;8.680;'2023-05-03 03:30:51';101070;;;8;43
30343;BME280;17145;49.902;8.680;'2023-05-03 03:33:29';101060;;;8;43
30343;BME280;17145;49.902;8.680;'2023-05-03 03:36:03';101060;;;8;43
30343;BME280;17145;49.902;8.680;'2023-05-03 03:38:35';101060;;;8;44
30343;BME280;17145;49.902;8.680;'2023-05-03 03:41:09';101050;;;8;43
30343;BME280;17145;49.902;8.680;'2023-05-03 03:43:37';101050;;;8;43
30343;BME280;17145;49.902;8.680;'2023-05-03 03:46:05';101050;;;8;44
30343;BME280;17145;49.902;8.680;'2023-05-03 03:48:32';101050;;;8;44
30343;BME280;17145;49.902;8.680;'2023-05-03 03:50:59';101050;;;8;43
30343;BME280;17145;49.902;8.680;'2023-05-03 03:53:27';101050;;;8;44
30343;BME280;17145;49.902;8.680;'2023-05-03 03:55:54';101060;;;8;43
30343;BME280;17145;49.902;8.680;'2023-05-03 03:58:21';101060;;;8;44
30343;BME280;17145;49.902;8.680;'2023-05-03 04:00:49';101050;;;8;44
30343;BME280;17145;49.902;8.680;'2023-05-03 04:03:16';101050;;;8;44
30343;BME280;17145;49.902;8.680;'2023-05-03 04:05:44';101060;;;8;44
30343;BME280;17145;49.902;8.680;'2023-05-03 04:08:11';101060;;;8;44
30343;BME280;17145;49.902;8.680;'2023-05-03 04:10:38';101060;;;7;44
30343;BME280;17145;49.902;8.680;'2023-05-03 04:13:06';101070;;;8;44
30343;BME280;17145;49.902;8.680;'2023-05-03 04:15:33';101070;;;8;44
30343;BME280;17145;49.902;8.680;'2023-05-03 04:18:01';101070;;;7;44
30343;BME280;17145;49.902;8.680;'2023-05-03 04:20:28';101080;;;7;44
30343;BME280;17145;49.902;8.680;'2023-05-03 04:22:55';101080;;;8;45
30343;BME280;17145;49.902;8.680;'2023-05-03 04:25:23';101080;;;7;45
30343;BME280;17145;49.902;8.680;'2023-05-03 04:27:50';101080;;;7;44
30343;BME280;17145;49.902;8.680;'2023-05-03 04:30:17';101080;;;7;45
30343;BME280;17145;49.902;8.680;'2023-05-03 04:32:45';101080;;;7;45
30343;BME280;17145;49.902;8.680;'2023-05-03 04:35:12';101080;;;7;45
30343;BME280;17145;49.902;8.680;'2023-05-03 04:37:39';101080;;;7;45
30343;BME280;17145;49.902;8.680;'2023-05-03 04:40:08';101080;;;7;45
30343;BME280;17145;49.902;8.680;'2023-05-03 04:42:35';101080;;;7;46
30343;BME280;17145;49.902;8.680;'2023-05-03 04:45:03';101080;;;7;45
30343;BME280;17145;49.902;8.680;'2023-05-03 04:47:31';101080;;;7;45
30343;BME280;17145;49.902;8.680;'2023-05-03 04:49:58';101080;;;7;45
30343;BME280;17145;49.902;8.680;'2023-05-03 04:52:26';101080;;;7;45
30343;BME280;17145;49.902;8.680;'2023-05-03 04:54:53';101080;;;7;45
30343;BME280;17145;49.902;8.680;'2023-05-03 04:57:20';101080;;;7;45
30343;BME280;17145;49.902;8.680;'2023-05-03 04:59:48';101090;;;7;45
30343;BME280;17145;49.902;8.680;'2023-05-03 05:02:15';101080;;;7;45
30343;BME280;17145;49.902;8.680;'2023-05-03 05:04:44';101080;;;7;45
30343;BME280;17145;49.902;8.680;'2023-05-03 05:07:11';101080;;;7;45
30343;BME280;17145;49.902;8.680;'2023-05-03 05:09:38';101080;;;7;45
30343;BME280;17145;49.902;8.680;'2023-05-03 05:12:06';101080;;;6;46
30343;BME280;17145;49.902;8.680;'2023-05-03 05:14:33';101080;;;6;46
30343;BME280;17145;49.902;8.680;'2023-05-03 05:17:00';101080;;;6;46
30343;BME280;17145;49.902;8.680;'2023-05-03 05:19:28';101080;;;6;46
30343;BME280;17145;49.902;8.680;'2023-05-03 05:21:55';101080;;;6;46
30343;BME280;17145;49.902;8.680;'2023-05-03 05:24:22';101080;;;6;46
30343;BME280;17145;49.902;8.680;'2023-05-03 05:26:50';101080;;;6;46
30343;BME280;17145;49.902;8.680;'2023-05-03 05:29:17';101080;;;6;46
30343;BME280;17145;49.902;8.680;'2023-05-03 05:31:45';101080;;;6;46
30343;BME280;17145;49.902;8.680;'2023-05-03 05:34:12';101080;;;6;46
30343;BME280;17145;49.902;8.680;'2023-05-03 05:36:40';101080;;;6;46
30343;BME280;17145;49.902;8.680;'2023-05-03 05:39:07';101080;;;6;46
30343;BME280;17145;49.902;8.680;'2023-05-03 05:41:34';101070;;;6;46
30343;BME280;17145;49.902;8.680;'2023-05-03 05:44:02';101080;;;6;46
30343;BME280;17145;49.902;8.680;'2023-05-03 05:46:29';101070;;;6;46
30343;BME280;17145;49.902;8.680;'2023-05-03 05:48:57';101070;;;6;46
30343;BME280;17145;49.902;8.680;'2023-05-03 05:51:24';101070;;;6;46
30343;BME280;17145;49.902;8.680;'2023-05-03 05:53:52';101070;;;6;46
30343;BME280;17145;49.902;8.680;'2023-05-03 05:56:19';101070;;;6;46
30343;BME280;17145;49.902;8.680;'2023-05-03 05:58:47';101070;;;6;46
30343;BME280;17145;49.902;8.680;'2023-05-03 06:01:14';101070;;;6;45
30343;BME280;17145;49.902;8.680;'2023-05-03 06:03:44';101070;;;7;45
30343;BME280;17145;49.902;8.680;'2023-05-03 06:06:11';101070;;;6;45
30343;BME280;17145;49.902;8.680;'2023-05-03 06:08:39';101070;;;6;45
30343;BME280;17145;49.902;8.680;'2023-05-03 06:11:10';101080;;;6;45
30343;BME280;17145;49.902;8.680;'2023-05-03 06:13:37';101080;;;6;46
30343;BME280;17145;49.902;8.680;'2023-05-03 06:16:05';101090;;;6;45
30343;BME280;17145;49.902;8.680;'2023-05-03 06:18:32';101090;;;6;45
30343;BME280;17145;49.902;8.680;'2023-05-03 06:21:00';101090;;;6;46
30343;BME280;17145;49.902;8.680;'2023-05-03 06:23:28';101090;;;6;45
30343;BME280;17145;49.902;8.680;'2023-05-03 06:25:55';101090;;;6;46
30343;BME280;17145;49.902;8.680;'2023-05-03 06:28:23';101100;;;6;46
30343;BME280;17145;49.902;8.680;'2023-05-03 06:30:50';101100;;;7;46
30343;BME280;17145;49.902;8.680;'2023-05-03 06:33:17';101100;;;6;45
30343;BME280;17145;49.902;8.680;'2023-05-03 06:35:48';101110;;;6;46
30343;BME280;17145;49.902;8.680;'2023-05-03 06:38:16';101100;;;7;46
30343;BME280;17145;49.902;8.680;'2023-05-03 06:40:43';101100;;;6;46
30343;BME280;17145;49.902;8.680;'2023-05-03 06:43:11';101100;;;6;46
30343;BME280;17145;49.902;8.680;'2023-05-03 06:45:39';101100;;;6;46
30343;BME280;17145;49.902;8.680;'2023-05-03 06:48:06';101110;;;6;46
30343;BME280;17145;49.902;8.680;'2023-05-03 06:50:34';101110;;;6;46
30343;BME280;17145;49.902;8.680;'2023-05-03 06:53:01';101110;;;6;46
30343;BME280;17145;49.902;8.680;'2023-05-03 06:55:28';101110;;;6;46
30343;BME280;17145;49.902;8.680;'2023-05-03 06:57:56';101120;;;6;46
30343;BME280;17145;49.902;8.680;'2023-05-03 07:00:24';101120;;;6;46
30343;BME280;17145;49.902;8.680;'2023-05-03 07:02:51';101120;;;6;46
30343;BME280;17145;49.902;8.680;'2023-05-03 07:05:18';101110;;;7;46
30343;BME280;17145;49.902;8.680;'2023-05-03 07:07:46';101110;;;6;45
30343;BME280;17145;49.902;8.680;'2023-05-03 07:10:13';101110;;;7;45
30343;BME280;17145;49.902;8.680;'2023-05-03 07:12:41';101120;;;7;45
30343;BME280;17145;49.902;8.680;'2023-05-03 07:15:09';101120;;;7;45
30343;BME280;17145;49.902;8.680;'2023-05-03 07:17:36';101120;;;7;45
30343;BME280;17145;49.902;8.680;'2023-05-03 07:20:05';101120;;;7;45
30343;BME280;17145;49.902;8.680;'2023-05-03 07:22:32';101110;;;7;45
30343;BME280;17145;49.902;8.680;'2023-05-03 07:25:00';101110;;;7;45
30343;BME280;17145;49.902;8.680;'2023-05-03 07:27:27';101110;;;7;45
30343;BME280;17145;49.902;8.680;'2023-05-03 07:29:55';101120;;;7;44
30343;BME280;17145;49.902;8.680;'2023-05-03 07:32:22';101110;;;7;44
30343;BME280;17145;49.902;8.680;'2023-05-03 07:34:49';101120;;;7;44
30343;BME280;17145;49.902;8.680;'2023-05-03 07:37:17';101120;;;7;44
30343;BME280;17145;49.902;8.680;'2023-05-03 07:39:44';101110;;;7;44
30343;BME280;17145;49.902;8.680;'2023-05-03 07:42:12';101110;;;7;44
30343;BME280;17145;49.902;8.680;'2023-05-03 07:44:39';101120;;;7;44
30343;BME280;17145;49.902;8.680;'2023-05-03 07:47:07';101120;;;8;44
30343;BME280;17145;49.902;8.680;'2023-05-03 07:49:34';101120;;;8;44
30343;BME280;17145;49.902;8.680;'2023-05-03 07:52:02';101110;;;8;43
30343;BME280;17145;49.902;8.680;'2023-05-03 07:54:29';101110;;;8;44
30343;BME280;17145;49.902;8.680;'2023-05-03 07:56:57';101120;;;8;43
30343;BME280;17145;49.902;8.680;'2023-05-03 07:59:24';101110;;;8;43
30343;BME280;17145;49.902;8.680;'2023-05-03 08:01:51';101110;;;8;43
30343;BME280;17145;49.902;8.680;'2023-05-03 08:04:19';101110;;;8;43
30343;BME280;17145;49.902;8.680;'2023-05-03 08:06:46';101110;;;8;43
30343;BME280;17145;49.902;8.680;'2023-05-03 08:09:14';101100;;;8;43
30343;BME280;17145;49.902;8.680;'2023-05-03 08:11:41';101110;;;8;43
30343;BME280;17145;49.902;8.680;'2023-05-03 08:14:09';101110;;;8;42
30343;BME280;17145;49.902;8.680;'2023-05-03 08:16:36';101110;;;9;43
30343;BME280;17145;49.902;8.680;'2023-05-03 08:19:03';101110;;;8;42
30343;BME280;17145;49.902;8.680;'2023-05-03 08:21:31';101100;;;8;42
30343;BME280;17145;49.902;8.680;'2023-05-03 08:23:58';101100;;;8;42
30343;BME280;17145;49.902;8.680;'2023-05-03 08:26:25';101100;;;9;42
30343;BME280;17145;49.902;8.680;'2023-05-03 08:28:53';101090;;;9;42
30343;BME280;17145;49.902;8.680;'2023-05-03 08:31:20';101080;;;9;42
30343;BME280;17145;49.902;8.680;'2023-05-03 08:33:47';101090;;;9;42
30343;BME280;17145;49.902;8.680;'2023-05-03 08:36:15';101090;;;9;42
30343;BME280;17145;49.902;8.680;'2023-05-03 08:38:42';101090;;;9;41
30343;BME280;17145;49.902;8.680;'2023-05-03 08:41:10';101100;;;9;41
30343;BME280;17145;49.902;8.680;'2023-05-03 08:43:37';101090;;;9;40
30343;BME280;17145;49.902;8.680;'2023-05-03 08:46:04';101100;;;9;41
30343;BME280;17145;49.902;8.680;'2023-05-03 08:48:32';101100;;;9;40
30343;BME280;17145;49.902;8.680;'2023-05-03 08:50:59';101100;;;9;41
30343;BME280;17145;49.902;8.680;'2023-05-03 08:53:26';101100;;;9;41
30343;BME280;17145;49.902;8.680;'2023-05-03 08:55:54';101110;;;9;40
30343;BME280;17145;49.902;8.680;'2023-05-03 08:58:21';101110;;;9;41
30343;BME280;17145;49.902;8.680;'2023-05-03 09:00:51';101110;;;10;40
30343;BME280;17145;49.902;8.680;'2023-05-03 09:03:18';101120;;;10;40
30343;BME280;17145;49.902;8.680;'2023-05-03 09:05:47';101110;;;10;40
30343;BME280;17145;49.902;8.680;'2023-05-03 09:08:14';101110;;;10;40
30343;BME280;17145;49.902;8.680;'2023-05-03 09:10:41';101110;;;10;40
30343;BME280;17145;49.902;8.680;'2023-05-03 09:13:09';101110;;;10;39
30343;BME280;17145;49.902;8.680;'2023-05-03 09:15:36';101100;;;10;39
30343;BME280;17145;49.902;8.680;'2023-05-03 09:18:04';101100;;;10;39
30343;BME280;17145;49.902;8.680;'2023-05-03 09:20:31';101090;;;10;39
30343;BME280;17145;49.902;8.680;'2023-05-03 09:22:59';101090;;;11;39
30343;BME280;17145;49.902;8.680;'2023-05-03 09:25:26';101090;;;10;39
30343;BME280;17145;49.902;8.680;'2023-05-03 09:27:53';101080;;;11;39
30343;BME280;17145;49.902;8.680;'2023-05-03 09:30:21';101080;;;10;39
30343;BME280;17145;49.902;8.680;'2023-05-03 09:32:48';101080;;;11;39
30343;BME280;17145;49.902;8.680;'2023-05-03 09:35:16';101080;;;11;39
30343;BME280;17145;49.902;8.680;'2023-05-03 09:37:43';101080;;;11;39
30343;BME280;17145;49.902;8.680;'2023-05-03 09:40:11';101080;;;11;39
30343;BME280;17145;49.902;8.680;'2023-05-03 09:42:38';101080;;;11;39
30343;BME280;17145;49.902;8.680;'2023-05-03 09:45:07';101080;;;11;39
30343;BME280;17145;49.902;8.680;'2023-05-03 09:47:35';101080;;;11;39
30343;BME280;17145;49.902;8.680;'2023-05-03 09:50:02';101080;;;11;38
30343;BME280;17145;49.902;8.680;'2023-05-03 09:52:34';101080;;;11;39
30343;BME280;17145;49.902;8.680;'2023-05-03 09:55:01';101080;;;11;39
30343;BME280;17145;49.902;8.680;'2023-05-03 09:57:29';101080;;;11;38
30343;BME280;17145;49.902;8.680;'2023-05-03 09:59:57';101080;;;11;38
30343;BME280;17145;49.902;8.680;'2023-05-03 10:02:24';101080;;;11;38
30343;BME280;17145;49.902;8.680;'2023-05-03 10:04:51';101080;;;12;38
30343;BME280;17145;49.902;8.680;'2023-05-03 10:07:19';101080;;;11;38
30343;BME280;17145;49.902;8.680;'2023-05-03 10:09:46';101080;;;12;39
30343;BME280;17145;49.902;8.680;'2023-05-03 10:12:14';101070;;;12;38
30343;BME280;17145;49.902;8.680;'2023-05-03 10:14:41';101080;;;12;38
30343;BME280;17145;49.902;8.680;'2023-05-03 10:17:08';101060;;;12;38
30343;BME280;17145;49.902;8.680;'2023-05-03 10:19:36';101060;;;12;38
30343;BME280;17145;49.902;8.680;'2023-05-03 10:22:03';101060;;;13;38
30343;BME280;17145;49.902;8.680;'2023-05-03 10:24:31';101060;;;12;38
30343;BME280;17145;49.902;8.680;'2023-05-03 10:26:58';101060;;;12;37
30343;BME280;17145;49.902;8.680;'2023-05-03 10:29:25';101060;;;13;37
30343;BME280;17145;49.902;8.680;'2023-05-03 10:31:53';101060;;;13;37
30343;BME280;17145;49.902;8.680;'2023-05-03 10:34:20';101060;;;12;38
30343;BME280;17145;49.902;8.680;'2023-05-03 10:36:48';101060;;;13;38
30343;BME280;17145;49.902;8.680;'2023-05-03 10:39:15';101060;;;13;37
30343;BME280;17145;49.902;8.680;'2023-05-03 10:41:43';101060;;;13;37
30343;BME280;17145;49.902;8.680;'2023-05-03 10:44:11';101060;;;13;37
30343;BME280;17145;49.902;8.680;'2023-05-03 10:46:41';101070;;;13;37
30343;BME280;17145;49.902;8.680;'2023-05-03 10:49:11';101070;;;13;37
30343;BME280;17145;49.902;8.680;'2023-05-03 10:51:40';101060;;;13;37
30343;BME280;17145;49.902;8.680;'2023-05-03 10:54:07';101060;;;13;36
30343;BME280;17145;49.902;8.680;'2023-05-03 10:56:41';101060;;;13;37
30343;BME280;17145;49.902;8.680;'2023-05-03 10:59:10';101060;;;13;37
30343;BME280;17145;49.902;8.680;'2023-05-03 11:01:38';101060;;;14;36
30343;BME280;17145;49.902;8.680;'2023-05-03 11:04:06';101060;;;14;36
30343;BME280;17145;49.902;8.680;'2023-05-03 11:06:34';101060;;;14;35
30343;BME280;17145;49.902;8.680;'2023-05-03 11:09:04';101060;;;14;35
30343;BME280;17145;49.902;8.680;'2023-05-03 11:11:33';101070;;;14;36
30343;BME280;17145;49.902;8.680;'2023-05-03 11:14:08';101070;;;14;36
30343;BME280;17145;49.902;8.680;'2023-05-03 11:16:35';101060;;;14;36
30343;BME280;17145;49.902;8.680;'2023-05-03 11:19:04';101070;;;14;36
30343;BME280;17145;49.902;8.680;'2023-05-03 11:21:31';101060;;;14;35
30343;BME280;17145;49.902;8.680;'2023-05-03 11:23:59';101050;;;14;35
30343;BME280;17145;49.902;8.680;'2023-05-03 11:26:28';101050;;;14;35
30343;BME280;17145;49.902;8.680;'2023-05-03 11:28:58';101050;;;14;35
30343;BME280;17145;49.902;8.680;'2023-05-03 11:31:26';101040;;;14;35
30343;BME280;17145;49.902;8.680;'2023-05-03 11:33:53';101040;;;15;35
30343;BME280;17145;49.902;8.680;'2023-05-03 11:36:21';101040;;;15;34
30343;BME280;17145;49.902;8.680;'2023-05-03 11:38:50';101040;;;15;35
30343;BME280;17145;49.902;8.680;'2023-05-03 11:41:25';101030;;;15;35
30343;BME280;17145;49.902;8.680;'2023-05-03 11:43:52';101030;;;15;34
30343;BME280;17145;49.902;8.680;'2023-05-03 11:46:20';101030;;;15;34
30343;BME280;17145;49.902;8.680;'2023-05-03 11:48:48';101030;;;15;34
30343;BME280;17145;49.902;8.680;'2023-05-03 11:51:16';101030;;;16;34
30343;BME280;17145;49.902;8.680;'2023-05-03 11:53:44';101030;;;15;33
30343;BME280;17145;49.902;8.680;'2023-05-03 11:56:12';101030;;;15;34
30343;BME280;17145;49.902;8.680;'2023-05-03 11:58:40';101020;;;15;33
30343;BME280;17145;49.902;8.680;'2023-05-03 12:01:09';101020;;;16;32
30343;BME280;17145;49.902;8.680;'2023-05-03 12:03:39';101020;;;15;32
30343;BME280;17145;49.902;8.680;'2023-05-03 12:06:17';101010;;;15;33
30343;BME280;17145;49.902;8.680;'2023-05-03 12:08:49';101000;;;15;33
30343;BME280;17145;49.902;8.680;'2023-05-03 12:11:18';101000;;;15;33
30343;BME280;17145;49.902;8.680;'2023-05-03 12:13:45';101000;;;16;34
30343;BME280;17145;49.902;8.680;'2023-05-03 12:16:19';101000;;;16;34
30343;BME280;17145;49.902;8.680;'2023-05-03 12:18:53';100990;;;16;34
30343;BME280;17145;49.902;8.680;'2023-05-03 12:21:30';100990;;;16;33
30343;BME280;17145;49.902;8.680;'2023-05-03 12:24:08';100990;;;17;32
30343;BME280;17145;49.902;8.680;'2023-05-03 12:26:36';100980;;;16;30
30343;BME280;17145;49.902;8.680;'2023-05-03 12:29:04';100980;;;16;31
30343;BME280;17145;49.902;8.680;'2023-05-03 12:31:43';100980;;;16;31
30343;BME280;17145;49.902;8.680;'2023-05-03 12:34:19';100980;;;16;32
30343;BME280;17145;49.902;8.680;'2023-05-03 12:36:47';100980;;;16;32
30343;BME280;17145;49.902;8.680;'2023-05-03 12:39:15';100980;;;16;32
30343;BME280;17145;49.902;8.680;'2023-05-03 12:44:19';100990;;;16;33
30343;BME280;17145;49.902;8.680;'2023-05-03 12:46:46';100980;;;17;32
30343;BME280;17145;49.902;8.680;'2023-05-03 12:49:17';100980;;;17;31
30343;BME280;17145;49.902;8.680;'2023-05-03 12:51:44';100980;;;17;31
30343;BME280;17145;49.902;8.680;'2023-05-03 12:54:12';100980;;;17;31
30343;BME280;17145;49.902;8.680;'2023-05-03 12:56:49';100980;;;18;30
30343;BME280;17145;49.902;8.680;'2023-05-03 12:59:17';100970;;;17;31
30343;BME280;17145;49.902;8.680;'2023-05-03 13:01:48';100970;;;17;30
30343;BME280;17145;49.902;8.680;'2023-05-03 13:04:25';100970;;;17;31
30343;BME280;17145;49.902;8.680;'2023-05-03 13:06:52';100960;;;18;31
30343;BME280;17145;49.902;8.680;'2023-05-03 13:09:19';100960;;;18;29
30343;BME280;17145;49.902;8.680;'2023-05-03 13:11:46';100960;;;18;29
30343;BME280;17145;49.902;8.680;'2023-05-03 13:14:14';100960;;;18;29
30343;BME280;17145;49.902;8.680;'2023-05-03 13:16:41';100950;;;17;28
30343;BME280;17145;49.902;8.680;'2023-05-03 13:19:09';100950;;;18;29
30343;BME280;17145;49.902;8.680;'2023-05-03 13:21:37';100940;;;18;30
30343;BME280;17145;49.902;8.680;'2023-05-03 13:24:05';100940;;;18;29
30343;BME280;17145;49.902;8.680;'2023-05-03 13:26:35';100930;;;18;29
30343;BME280;17145;49.902;8.680;'2023-05-03 13:29:02';100930;;;19;29
30343;BME280;17145;49.902;8.680;'2023-05-03 13:31:31';100930;;;19;29
30343;BME280;17145;49.902;8.680;'2023-05-03 13:33:59';100930;;;19;29
30343;BME280;17145;49.902;8.680;'2023-05-03 13:36:26';100930;;;19;28
30343;BME280;17145;49.902;8.680;'2023-05-03 13:38:53';100930;;;19;26
30343;BME280;17145;49.902;8.680;'2023-05-03 13:41:21';100930;;;19;26
30343;BME280;17145;49.902;8.680;'2023-05-03 13:43:49';100930;;;18;27
30343;BME280;17145;49.902;8.680;'2023-05-03 13:46:19';100920;;;18;27
30343;BME280;17145;49.902;8.680;'2023-05-03 13:48:47';100920;;;18;28
30343;BME280;17145;49.902;8.680;'2023-05-03 13:51:19';100920;;;18;28
30343;BME280;17145;49.902;8.680;'2023-05-03 13:53:47';100920;;;18;28
30343;BME280;17145;49.902;8.680;'2023-05-03 13:56:14';100920;;;18;27
30343;BME280;17145;49.902;8.680;'2023-05-03 13:58:49';100920;;;18;27
30343;BME280;17145;49.902;8.680;'2023-05-03 14:01:17';100920;;;18;28
30343;BME280;17145;49.902;8.680;'2023-05-03 14:03:44';100920;;;19;28
30343;BME280;17145;49.902;8.680;'2023-05-03 14:06:12';100910;;;19;27
30343;BME280;17145;49.902;8.680;'2023-05-03 14:08:39';100900;;;20;27
30343;BME280;17145;49.902;8.680;'2023-05-03 14:11:07';100900;;;20;26
30343;BME280;17145;49.902;8.680;'2023-05-03 14:13:36';100900;;;20;26
30343;BME280;17145;49.902;8.680;'2023-05-03 14:16:06';100890;;;20;26
30343;BME280;17145;49.902;8.680;'2023-05-03 14:18:45';100890;;;20;27
30343;BME280;17145;49.902;8.680;'2023-05-03 14:21:12';100890;;;20;26
30343;BME280;17145;49.902;8.680;'2023-05-03 14:23:39';100880;;;20;25
30343;BME280;17145;49.902;8.680;'2023-05-03 14:26:07';100880;;;21;25
30343;BME280;17145;49.902;8.680;'2023-05-03 14:28:34';100880;;;21;25
30343;BME280;17145;49.902;8.680;'2023-05-03 14:31:02';100880;;;21;24
30343;BME280;17145;49.902;8.680;'2023-05-03 14:33:30';100880;;;20;24
30343;BME280;17145;49.902;8.680;'2023-05-03 14:35:57';100880;;;20;24
30343;BME280;17145;49.902;8.680;'2023-05-03 14:38:25';100880;;;21;23
30343;BME280;17145;49.902;8.680;'2023-05-03 14:40:52';100870;;;21;24
30343;BME280;17145;49.902;8.680;'2023-05-03 14:43:20';100870;;;21;24
30343;BME280;17145;49.902;8.680;'2023-05-03 14:45:48';100860;;;21;24
30343;BME280;17145;49.902;8.680;'2023-05-03 14:48:15';100860;;;21;24
30343;BME280;17145;49.902;8.680;'2023-05-03 14:50:43';100860;;;21;23
30343;BME280;17145;49.902;8.680;'2023-05-03 14:53:10';100860;;;21;22
30343;BME280;17145;49.902;8.680;'2023-05-03 14:55:38';100860;;;21;23
30343;BME280;17145;49.902;8.680;'2023-05-03 14:58:05';100860;;;22;23
30343;BME280;17145;49.902;8.680;'2023-05-03 15:00:33';100850;;;22;23
30343;BME280;17145;49.902;8.680;'2023-05-03 15:03:00';100850;;;22;23
30343;BME280;17145;49.902;8.680;'2023-05-03 15:05:28';100840;;;22;21
30343;BME280;17145;49.902;8.680;'2023-05-03 15:07:55';100840;;;22;22
30343;BME280;17145;49.902;8.680;'2023-05-03 15:10:24';100840;;;22;23
30343;BME280;17145;49.902;8.680;'2023-05-03 15:12:51';100830;;;22;23
30343;BME280;17145;49.902;8.680;'2023-05-03 15:15:19';100810;;;22;23
30343;BME280;17145;49.902;8.680;'2023-05-03 15:17:46';100820;;;22;24
30343;BME280;17145;49.902;8.680;'2023-05-03 15:20:14';100810;;;22;23
30343;BME280;17145;49.902;8.680;'2023-05-03 15:22:41';100810;;;22;22
30343;BME280;17145;49.902;8.680;'2023-05-03 15:25:09';100810;;;23;22
30343;BME280;17145;49.902;8.680;'2023-05-03 15:27:36';100800;;;23;22
30343;BME280;17145;49.902;8.680;'2023-05-03 15:30:05';100790;;;23;21
30343;BME280;17145;49.902;8.680;'2023-05-03 15:32:32';100780;;;23;20
30343;BME280;17145;49.902;8.680;'2023-05-03 15:34:59';100790;;;23;21
30343;BME280;17145;49.902;8.680;'2023-05-03 15:37:27';100780;;;23;21
30343;BME280;17145;49.902;8.680;'2023-05-03 15:39:54';100780;;;23;20
30343;BME280;17145;49.902;8.680;'2023-05-03 15:42:22';100780;;;23;20
30343;BME280;17145;49.902;8.680;'2023-05-03 15:44:49';100780;;;23;21
30343;BME280;17145;49.902;8.680;'2023-05-03 15:47:17';100780;;;23;21
30343;BME280;17145;49.902;8.680;'2023-05-03 15:49:44';100770;;;23;22
30343;BME280;17145;49.902;8.680;'2023-05-03 15:52:11';100770;;;23;21
30343;BME280;17145;49.902;8.680;'2023-05-03 15:54:39';100770;;;23;21
30343;BME280;17145;49.902;8.680;'2023-05-03 15:57:06';100770;;;23;19
30343;BME280;17145;49.902;8.680;'2023-05-03 15:59:34';100770;;;23;20
30343;BME280;17145;49.902;8.680;'2023-05-03 16:02:01';100770;;;23;19
30343;BME280;17145;49.902;8.680;'2023-05-03 16:04:29';100760;;;23;19
30343;BME280;17145;49.902;8.680;'2023-05-03 16:06:56';100760;;;23;21
30343;BME280;17145;49.902;8.680;'2023-05-03 16:09:24';100760;;;23;20
30343;BME280;17145;49.902;8.680;'2023-05-03 16:11:51';100760;;;23;20
30343;BME280;17145;49.902;8.680;'2023-05-03 16:14:18';100760;;;24;20
30343;BME280;17145;49.902;8.680;'2023-05-03 16:16:46';100750;;;24;20
30343;BME280;17145;49.902;8.680;'2023-05-03 16:19:13';100750;;;24;21